Time;durP1;ratioP1;P1;durP2;ratioP2;P2;SDS_P1;SDS_P2;PMS_P1;PMS_P2;Temp;Humidity;BMP_temperature;BMP_pressure;BME280_temperature;BME280_humidity;BME280_pressure;Samples;Min_cycle;Max_cycle;Signal;HPM_P1;HPM_P2
2022/03/20 00:05:48;;;;;;;42.53;18.80;;;;;;;4.38;34.77;101629.13;4400474;80;43774;-73
2022/03/20 00:11:49;;;;;;;45.95;19.67;;;;;;;4.40;34.89;101626.67;4345049;81;43728;-72
2022/03/20 00:17:50;;;;;;;42.03;18.23;;;;;;;4.74;34.14;101627.88;4348589;81;28489;-73
2022/03/20 00:23:52;;;;;;;43.00;18.12;;;;;;;4.42;34.72;101627.89;4346476;81;43214;-72
2022/03/20 00:29:54;;;;;;;40.60;16.93;;;;;;;4.49;34.89;101629.55;4449844;78;44481;-73
2022/03/20 00:35:56;;;;;;;41.80;16.80;;;;;;;4.17;35.14;101624.08;4427283;80;44501;-73
2022/03/20 00:41:57;;;;;;;36.53;16.20;;;;;;;3.96;35.83;101619.17;4434163;80;44450;-72
2022/03/20 00:47:59;;;;;;;37.90;15.93;;;;;;;4.21;35.43;101627.34;4451460;78;44498;-73
2022/03/20 00:54:00;;;;;;;41.73;16.95;;;;;;;4.45;34.98;101620.97;4351446;81;44470;-72
2022/03/20 01:00:01;;;;;;;36.73;16.02;;;;;;;4.38;35.12;101623.80;4441204;78;44496;-72
2022/03/20 01:06:03;;;;;;;35.58;15.98;;;;;;;4.18;35.36;101627.60;4401495;80;44447;-73
2022/03/20 01:12:07;;;;;;;36.48;15.90;;;;;;;3.86;35.85;101619.91;4394278;80;44479;-73
2022/03/20 01:18:09;;;;;;;41.23;17.17;;;;;;;3.52;36.51;101623.07;4420071;80;44547;-73
2022/03/20 01:24:10;;;;;;;38.20;16.50;;;;;;;3.79;36.01;101600.57;4404229;81;44460;-73
2022/03/20 01:30:12;;;;;;;41.75;17.40;;;;;;;3.91;35.72;101606.23;4388018;81;43286;-72
2022/03/20 01:36:13;;;;;;;36.20;14.20;;;;;;;4.15;35.75;101618.52;4422501;80;44473;-72
2022/03/20 01:42:14;;;;;;;37.33;14.93;;;;;;;3.81;36.32;101612.80;4440703;79;44450;-72
2022/03/20 01:48:15;;;;;;;32.45;13.93;;;;;;;3.70;36.39;101612.81;4435047;79;44174;-72
2022/03/20 01:54:17;;;;;;;47.80;17.52;;;;;;;3.79;36.33;101609.39;4391680;81;43760;-72
2022/03/20 02:00:20;;;;;;;34.13;14.30;;;;;;;3.63;36.68;101611.95;4388124;81;44505;-73
2022/03/20 02:06:22;;;;;;;35.35;14.83;;;;;;;3.58;36.77;101603.98;4381924;79;44502;-73
2022/03/20 02:12:23;;;;;;;35.60;14.40;;;;;;;3.73;36.37;101608.06;4384957;81;44458;-73
2022/03/20 02:18:25;;;;;;;31.87;13.98;;;;;;;3.79;36.31;101608.05;4355399;81;44065;-73
2022/03/20 02:24:32;;;;;;;33.80;15.18;;;;;;;3.95;35.82;101614.32;4391644;81;44118;-73
2022/03/20 02:30:33;;;;;;;31.45;14.78;;;;;;;3.39;36.70;101607.26;4387853;80;44142;-73
2022/03/20 02:36:36;;;;;;;33.28;15.10;;;;;;;2.26;38.80;101610.80;4373794;81;44115;-73
2022/03/20 02:42:40;;;;;;;32.30;15.25;;;;;;;2.29;39.00;101602.64;4351286;81;44140;-73
2022/03/20 02:48:42;;;;;;;35.83;15.20;;;;;;;2.13;39.41;101608.20;4372553;80;44469;-74
2022/03/20 02:54:43;;;;;;;32.83;14.68;;;;;;;2.27;39.48;101619.13;4426889;80;44128;-73
2022/03/20 03:00:45;;;;;;;36.25;14.00;;;;;;;3.08;37.92;101610.97;4409683;80;44448;-73
2022/03/20 03:06:48;;;;;;;36.13;15.13;;;;;;;2.03;39.76;101609.36;4362080;81;44608;-73
2022/03/20 03:12:49;;;;;;;36.75;14.73;;;;;;;2.06;40.01;101616.26;4365995;81;44485;-73
2022/03/20 03:18:50;;;;;;;32.35;13.88;;;;;;;1.98;40.10;101604.02;4431451;80;44077;-74
2022/03/20 03:24:54;;;;;;;36.13;14.90;;;;;;;1.65;41.06;101607.19;4411439;80;44501;-73
2022/03/20 03:30:55;;;;;;;34.18;14.87;;;;;;;1.79;40.57;101604.02;4407165;80;44492;-73
2022/03/20 03:36:57;;;;;;;32.88;13.15;;;;;;;1.78;41.02;101615.12;4405168;80;44116;-74
2022/03/20 03:43:00;;;;;;;37.63;15.58;;;;;;;1.83;40.53;101602.00;4416551;80;44439;-73
2022/03/20 03:49:01;;;;;;;34.27;14.80;;;;;;;1.70;41.37;101610.84;4396793;80;44241;-73
2022/03/20 03:55:07;;;;;;;34.43;15.43;;;;;;;1.60;41.39;101617.26;4369918;80;44131;-73
2022/03/20 04:01:09;;;;;;;35.58;15.20;;;;;;;1.80;41.41;101614.53;4387136;81;44170;-73
2022/03/20 04:07:10;;;;;;;34.03;14.45;;;;;;;1.57;41.97;101616.16;4338178;81;44109;-74
2022/03/20 04:13:12;;;;;;;34.43;15.80;;;;;;;1.50;42.44;101626.35;4339877;81;44604;-73
2022/03/20 04:19:15;;;;;;;33.85;14.80;;;;;;;1.49;42.69;101610.55;4342853;81;44111;-74
2022/03/20 04:25:16;;;;;;;42.08;16.52;;;;;;;1.59;42.62;101618.22;4329472;80;44494;-72
2022/03/20 04:31:19;;;;;;;38.38;14.53;;;;;;;2.17;41.16;101628.73;4319169;80;44464;-72
2022/03/20 04:37:21;;;;;;;34.40;14.70;;;;;;;2.11;41.85;101641.14;4428721;80;44112;-72
2022/03/20 04:43:23;;;;;;;31.10;12.47;;;;;;;2.22;41.44;101637.22;4397703;80;43822;-79
2022/03/20 05:02:04;;;;;;;32.23;14.65;;;;;;;2.00;41.62;101648.07;4430507;80;44159;-79
2022/03/20 05:08:06;;;;;;;35.85;15.90;;;;;;;1.99;41.87;101666.75;4360171;80;44466;-79
2022/03/20 05:14:07;;;;;;;34.67;14.75;;;;;;;1.83;42.45;101669.18;4421993;80;44206;-79
2022/03/20 05:20:10;;;;;;;38.00;15.90;;;;;;;1.99;42.06;101668.94;4366213;80;44525;-79
2022/03/20 05:26:12;;;;;;;34.30;15.90;;;;;;;2.03;42.33;101673.52;4398487;80;44124;-77
2022/03/20 05:32:14;;;;;;;40.75;15.95;;;;;;;2.26;41.80;101673.19;4391526;79;44481;-78
2022/03/20 05:38:15;;;;;;;39.53;15.40;;;;;;;1.90;42.51;101676.22;4442250;79;44465;-78
2022/03/20 05:44:22;;;;;;;34.73;14.80;;;;;;;2.41;41.90;101677.86;4368936;80;44112;-81
2022/03/20 05:50:26;;;;;;;37.17;16.73;;;;;;;2.18;42.63;101672.43;4305609;82;44477;-78
2022/03/20 06:02:47;;;;;;;43.95;18.35;;;;;;;2.51;42.18;101688.18;4387006;80;43799;-79
2022/03/20 06:08:49;;;;;;;40.50;16.48;;;;;;;2.22;42.72;101701.77;4427447;80;44445;-79
2022/03/20 06:14:50;;;;;;;43.20;19.12;;;;;;;2.57;42.23;101708.63;4421864;78;43781;-77
2022/03/20 06:20:52;;;;;;;37.83;17.80;;;;;;;1.80;44.57;101715.80;4433952;78;44441;-77
2022/03/20 06:26:53;;;;;;;41.45;17.82;;;;;;;1.97;44.32;101719.09;4427009;79;44493;-77
2022/03/20 06:32:56;;;;;;;39.25;18.60;;;;;;;2.34;43.66;101723.08;4418739;80;44511;-77
2022/03/20 06:38:57;;;;;;;44.77;18.73;;;;;;;2.27;43.91;101723.16;4432850;78;43780;-77
2022/03/20 06:45:00;;;;;;;37.88;18.42;;;;;;;2.89;43.23;101725.32;4442568;80;44508;-82
2022/03/20 06:51:04;;;;;;;44.30;20.65;;;;;;;3.50;41.24;101732.28;4444996;79;43768;-78
2022/03/20 06:57:05;;;;;;;42.88;18.77;;;;;;;3.53;41.12;101750.66;4383024;81;43677;-77
2022/03/20 07:03:08;;;;;;;43.25;18.37;;;;;;;3.52;40.92;101755.61;4387129;81;43764;-78
2022/03/20 07:09:10;;;;;;;38.00;17.52;;;;;;;3.31;42.09;101755.42;4426122;78;44445;-73
2022/03/20 07:15:11;;;;;;;35.28;15.90;;;;;;;3.80;41.04;101760.61;4381278;81;44458;-73
2022/03/20 07:21:14;;;;;;;43.58;19.73;;;;;;;3.96;41.23;101769.11;4388959;80;43795;-74
2022/03/20 07:33:36;;;;;;;35.75;18.48;;;;;;;4.46;40.00;101771.38;4408909;80;44473;-81
2022/03/20 07:39:37;;;;;;;41.37;19.25;;;;;;;4.38;40.21;101771.64;4376218;80;42873;-78
2022/03/20 07:45:39;;;;;;;39.03;18.45;;;;;;;4.31;40.10;101777.91;4407932;80;44430;-78
2022/03/20 07:51:40;;;;;;;37.30;18.07;;;;;;;4.47;39.77;101785.52;4398314;80;44448;-79
2022/03/20 07:57:44;;;;;;;35.33;16.75;;;;;;;4.77;39.12;101783.19;4360904;79;44312;-81
2022/03/20 08:03:46;;;;;;;33.78;16.90;;;;;;;5.40;37.74;101789.13;4373454;80;44099;-83
2022/03/20 08:09:47;;;;;;;34.23;16.50;;;;;;;5.54;37.63;101787.97;4381866;79;44144;-84
2022/03/20 08:15:49;;;;;;;36.77;16.45;;;;;;;5.95;36.88;101786.24;4378598;79;44430;-79
2022/03/20 08:21:51;;;;;;;34.45;15.40;;;;;;;6.04;36.19;101787.29;4388935;80;28519;-81
2022/03/20 08:27:56;;;;;;;33.20;15.00;;;;;;;6.55;36.03;101778.81;4391586;79;28514;-80
2022/03/20 08:33:57;;;;;;;31.83;15.63;;;;;;;6.77;35.29;101774.23;4364448;80;28527;-80
2022/03/20 08:39:59;;;;;;;31.90;14.73;;;;;;;6.62;35.66;101772.45;4376068;80;28524;-82
2022/03/20 08:46:00;;;;;;;28.60;15.20;;;;;;;7.50;34.98;101767.59;4382034;79;28497;-74
2022/03/20 08:52:02;;;;;;;34.53;16.05;;;;;;;7.53;34.77;101761.95;4374386;80;28495;-80
2022/03/20 08:58:04;;;;;;;30.10;15.08;;;;;;;7.79;34.61;101759.14;4379174;79;28493;-80
2022/03/20 09:04:07;;;;;;;31.37;15.40;;;;;;;8.15;34.05;101755.28;4385914;79;28495;-80
2022/03/20 09:10:10;;;;;;;30.37;14.50;;;;;;;8.07;33.74;101748.47;4389636;79;28484;-78
2022/03/20 09:22:31;;;;;;;31.10;13.78;;;;;;;8.81;32.63;101732.90;4371403;79;28524;-78
2022/03/20 09:28:34;;;;;;;36.25;15.85;;;;;;;8.87;32.10;101725.08;4399565;79;28516;-80
2022/03/20 09:34:35;;;;;;;32.63;16.42;;;;;;;9.33;32.00;101724.13;4372716;79;28497;-80
2022/03/20 09:40:38;;;;;;;32.55;16.07;;;;;;;9.18;31.64;101715.79;4373624;79;28486;-83
2022/03/20 09:46:41;;;;;;;31.20;14.78;;;;;;;9.31;31.60;101722.07;4378391;79;28533;-82
2022/03/20 09:52:43;;;;;;;29.45;13.95;;;;;;;9.59;31.31;101721.45;4365497;79;28529;-83
2022/03/20 09:58:44;;;;;;;25.17;12.78;;;;;;;9.57;30.65;101717.22;4390248;80;28472;-81
2022/03/20 10:05:05;;;;;;;26.60;13.25;;;;;;;9.69;30.33;101719.98;4380559;80;28454;-82
2022/03/20 10:11:18;;;;;;;23.85;11.33;;;;;;;9.82;30.01;101727.61;4379514;79;28513;-82
2022/03/20 10:17:19;;;;;;;24.90;13.13;;;;;;;9.57;29.83;101732.82;4358216;79;28505;-82
2022/03/20 10:23:39;;;;;;;32.10;14.20;;;;;;;10.07;29.66;101728.23;4386391;79;28469;-82
2022/03/20 10:29:55;;;;;;;25.27;12.82;;;;;;;10.40;29.92;101726.48;4375046;79;28556;-83
2022/03/20 10:36:16;;;;;;;26.17;12.47;;;;;;;10.43;29.76;101716.80;4389230;79;28469;-83
2022/03/20 10:42:18;;;;;;;24.12;12.25;;;;;;;10.87;29.26;101708.94;4383620;79;28535;-83
2022/03/20 10:48:30;;;;;;;20.32;10.95;;;;;;;11.16;28.10;101705.42;4396063;79;28516;-84
2022/03/20 10:54:46;;;;;;;18.65;9.38;;;;;;;11.39;27.74;101689.91;4379668;79;28475;-80
2022/03/20 11:00:47;;;;;;;19.87;10.32;;;;;;;11.40;27.05;101680.81;4377349;79;28594;-81
2022/03/20 11:06:54;;;;;;;19.27;10.00;;;;;;;11.69;27.50;101678.05;4358570;79;28511;-76
2022/03/20 11:12:57;;;;;;;17.67;10.33;;;;;;;12.03;27.27;101649.11;4378276;81;28520;-80
2022/03/20 11:18:59;;;;;;;20.75;8.88;;;;;;;12.00;26.55;101647.07;4394278;81;28540;-79
2022/03/20 11:25:01;;;;;;;16.62;8.43;;;;;;;12.22;26.38;101632.48;4378218;79;28553;-79
2022/03/20 11:31:02;;;;;;;17.15;8.58;;;;;;;11.86;25.73;101626.27;4382430;80;28495;-79
2022/03/20 11:37:08;;;;;;;12.35;7.25;;;;;;;12.20;25.76;101612.13;4364840;80;28479;-78
2022/03/20 11:43:22;;;;;;;14.60;7.08;;;;;;;12.02;24.84;101615.05;4369802;81;28496;-79
2022/03/20 11:49:26;;;;;;;15.03;7.47;;;;;;;12.21;24.29;101609.23;4371815;81;28516;-78
2022/03/20 11:55:40;;;;;;;13.68;7.40;;;;;;;12.44;24.50;101592.20;4405964;80;28500;-82
2022/03/20 12:02:01;;;;;;;14.45;6.87;;;;;;;12.80;23.25;101592.92;4356495;79;28552;-82
2022/03/20 12:08:43;;;;;;;11.85;5.87;;;;;;;12.71;23.16;101587.27;4391320;79;28469;-81
2022/03/20 12:14:53;;;;;;;11.10;5.15;;;;;;;13.11;22.90;101574.88;4348508;79;28502;-81
2022/03/20 12:21:02;;;;;;;9.55;5.67;;;;;;;12.94;21.09;101570.17;4371924;81;28489;-77
2022/03/20 12:27:29;;;;;;;9.95;5.50;;;;;;;13.13;22.18;101564.76;4387237;79;28552;-78
2022/03/20 12:33:28;;;;;;;12.18;5.30;;;;;;;13.28;21.91;101559.85;4385776;79;28517;-77
2022/03/20 12:39:54;;;;;;;10.80;5.87;;;;;;;13.19;21.03;101557.77;4361745;79;28559;-81
2022/03/20 12:45:56;;;;;;;9.35;5.80;;;;;;;13.03;20.89;101556.09;4362873;79;28525;-81
2022/03/20 12:51:59;;;;;;;8.93;5.20;;;;;;;13.35;21.51;101540.00;4391304;79;28741;-81
2022/03/20 12:58:00;;;;;;;8.83;4.42;;;;;;;13.60;21.28;101541.08;4389520;79;28574;-81
2022/03/20 13:04:14;;;;;;;9.00;4.87;;;;;;;13.47;19.76;101538.19;4368049;80;28489;-81
2022/03/20 13:10:16;;;;;;;7.35;4.17;;;;;;;13.41;21.05;101528.95;4379375;80;28515;-83
2022/03/20 13:16:17;;;;;;;7.40;4.70;;;;;;;13.44;19.74;101530.44;4390736;81;28551;-80
2022/03/20 13:22:19;;;;;;;8.38;5.03;;;;;;;13.62;19.19;101518.75;4390149;80;28504;-80
2022/03/20 13:28:38;;;;;;;7.03;4.42;;;;;;;13.30;19.85;101523.53;4360112;80;28527;-81
2022/03/20 13:34:47;;;;;;;10.95;4.80;;;;;;;13.62;20.14;101513.34;4364605;80;28503;-81
2022/03/20 13:40:49;;;;;;;10.45;5.42;;;;;;;13.59;20.27;101508.82;4396631;79;28491;-85
2022/03/20 13:46:50;;;;;;;8.55;4.83;;;;;;;13.39;20.61;101504.84;4363946;80;28477;-81
2022/03/20 13:52:52;;;;;;;8.88;5.15;;;;;;;13.76;20.24;101504.86;4349923;80;28677;-83
2022/03/20 13:59:06;;;;;;;9.40;5.20;;;;;;;13.79;20.00;101496.86;4340560;81;28500;-79
2022/03/20 14:05:13;;;;;;;25.52;12.68;;;;;;;13.87;20.83;101491.87;4331319;81;28491;-76
2022/03/20 14:11:15;;;;;;;19.37;10.15;;;;;;;13.59;20.40;101500.21;4341667;81;28551;-79
2022/03/20 14:17:17;;;;;;;8.58;4.65;;;;;;;13.84;20.39;101489.52;4339259;81;28541;-80
2022/03/20 14:23:21;;;;;;;8.35;4.15;;;;;;;13.68;19.52;101482.50;4333024;81;28534;-81
2022/03/20 14:42:28;;;;;;;6.92;3.98;;;;;;;13.52;19.66;101477.67;4341684;81;28500;-78
2022/03/20 14:48:29;;;;;;;9.03;4.87;;;;;;;13.74;19.65;101470.93;4357825;81;29066;-79
2022/03/20 14:54:31;;;;;;;7.70;4.58;;;;;;;13.71;20.14;101457.28;4372726;79;28538;-77
2022/03/20 15:00:33;;;;;;;6.55;4.10;;;;;;;13.70;20.10;101458.84;4374511;79;28533;-81
2022/03/20 15:06:34;;;;;;;6.65;3.90;;;;;;;13.51;20.10;101455.20;4374345;79;28489;-80
2022/03/20 15:12:35;;;;;;;6.72;3.90;;;;;;;13.79;20.41;101456.30;4394656;79;28578;-81
2022/03/20 15:18:37;;;;;;;6.85;3.75;;;;;;;13.61;20.45;101452.70;4399144;79;28477;-80
2022/03/20 15:24:40;;;;;;;6.08;3.77;;;;;;;13.59;20.76;101445.30;4388912;79;28514;-81
2022/03/20 15:30:41;;;;;;;7.92;3.65;;;;;;;13.27;20.58;101449.59;4392852;79;28500;-81
2022/03/20 15:36:45;;;;;;;7.15;4.15;;;;;;;13.15;20.95;101451.11;4364471;79;28575;-85
2022/03/20 15:42:48;;;;;;;5.65;3.45;;;;;;;13.45;20.72;101447.02;4380251;79;28590;-79
2022/03/20 15:48:50;;;;;;;7.50;3.67;;;;;;;13.19;21.03;101446.49;4385679;79;28517;-79
2022/03/20 15:54:52;;;;;;;5.87;3.67;;;;;;;13.44;20.88;101443.97;4394937;80;28551;-75
2022/03/20 16:00:54;;;;;;;6.87;3.62;;;;;;;13.12;20.59;101442.89;4414349;80;28473;-78
2022/03/20 16:07:01;;;;;;;6.87;3.30;;;;;;;12.82;20.48;101434.30;4410175;80;28532;-79
2022/03/20 16:13:03;;;;;;;6.28;3.20;;;;;;;13.06;20.63;101438.23;4419917;79;28532;-80
2022/03/20 16:19:04;;;;;;;6.35;2.83;;;;;;;12.96;20.71;101433.11;4418650;80;28473;-80
2022/03/20 16:31:28;;;;;;;6.35;2.87;;;;;;;12.79;20.95;101437.88;4413170;80;28504;-78
2022/03/20 16:37:29;;;;;;;6.28;3.35;;;;;;;12.73;20.96;101435.41;4419929;80;28520;-79
2022/03/20 16:43:31;;;;;;;5.12;2.80;;;;;;;12.30;21.21;101436.55;4420732;80;28499;-81
2022/03/20 16:49:33;;;;;;;5.70;3.00;;;;;;;12.31;21.29;101430.13;4365552;80;28496;-81
2022/03/20 16:55:37;;;;;;;5.60;3.55;;;;;;;12.10;21.52;101432.52;4383004;79;28515;-83
2022/03/20 17:01:38;;;;;;;6.87;3.30;;;;;;;11.94;21.84;101429.92;4384656;79;28517;-79
2022/03/20 17:07:39;;;;;;;7.22;3.02;;;;;;;11.69;22.12;101436.34;4397601;79;28546;-80
2022/03/20 17:13:41;;;;;;;7.70;3.67;;;;;;;11.58;22.36;101435.41;4365555;79;28546;-82
2022/03/20 17:19:43;;;;;;;7.00;4.25;;;;;;;11.31;22.61;101441.65;4348809;80;28523;-81
2022/03/20 17:25:44;;;;;;;8.93;4.42;;;;;;;11.22;22.71;101453.47;4352772;80;28544;-80
2022/03/20 17:31:45;;;;;;;7.97;4.12;;;;;;;10.88;23.13;101457.66;4361053;80;28541;-81
2022/03/20 17:37:47;;;;;;;9.48;4.25;;;;;;;10.69;23.29;101464.25;4372194;80;28495;-71
2022/03/20 17:43:49;;;;;;;9.95;5.50;;;;;;;10.54;23.54;101466.80;4370891;80;28476;-73
2022/03/20 17:49:51;;;;;;;13.18;6.40;;;;;;;10.51;23.76;101474.37;4371920;80;28516;-74
2022/03/20 17:55:52;;;;;;;14.63;6.35;;;;;;;10.30;24.09;101474.36;4376952;80;28489;-71
2022/03/20 18:07:41;;;;;;;18.07;7.20;;;;;;;10.18;24.37;101480.61;4399113;80;28442;-72
2022/03/20 18:08:01;;;;;;;14.05;7.40;;;;;;;10.05;24.71;101481.10;4402628;80;28466;-72
2022/03/20 18:14:02;;;;;;;12.65;6.42;;;;;;;9.95;25.00;101482.62;4393417;80;28585;-73
2022/03/20 18:20:08;;;;;;;13.38;6.95;;;;;;;9.79;25.32;101487.97;4384346;80;28486;-73
2022/03/20 18:26:10;;;;;;;;;;;;;;;9.78;25.40;101490.31;4406355;81;28525;-79
2022/03/20 18:32:11;;;;;;;15.75;7.40;;;;;;;9.73;25.64;101488.95;4434711;80;20280;-77
2022/03/20 18:38:12;;;;;;;17.75;7.42;;;;;;;9.57;25.67;101484.37;4385265;80;28483;-75
2022/03/20 18:44:14;;;;;;;17.82;8.33;;;;;;;9.47;26.03;101486.37;4364163;80;28511;-77
2022/03/20 18:50:16;;;;;;;14.78;7.70;;;;;;;9.39;26.24;101478.31;4367814;81;28595;-80
2022/03/20 18:56:20;;;;;;;16.80;8.20;;;;;;;9.33;26.28;101481.97;4450541;78;28606;-83
2022/03/20 19:02:22;;;;;;;18.30;8.48;;;;;;;9.47;26.25;101481.00;4363795;80;28804;-82
2022/03/20 19:08:23;;;;;;;19.67;9.08;;;;;;;9.36;26.50;101479.47;4371925;79;28546;-81
2022/03/20 19:14:27;;;;;;;21.57;9.10;;;;;;;9.36;26.68;101479.47;4373717;79;28517;-79
2022/03/20 19:20:28;;;;;;;23.60;10.28;;;;;;;9.28;26.90;101480.30;4386855;79;28587;-80
2022/03/20 19:26:29;;;;;;;23.60;10.35;;;;;;;8.87;27.50;101482.80;4392285;81;28606;-79
2022/03/20 19:32:33;;;;;;;25.08;10.85;;;;;;;8.82;27.54;101487.30;4396741;80;28485;-79
2022/03/20 19:44:59;;;;;;;25.82;10.85;;;;;;;8.53;28.29;101484.43;4352734;80;28526;-81
2022/03/20 19:51:02;;;;;;;22.27;11.25;;;;;;;8.39;28.79;101479.10;4389179;80;28551;-81
2022/03/20 19:57:05;;;;;;;22.48;11.18;;;;;;;8.15;28.93;101487.30;4387525;79;28597;-82
2022/03/20 20:03:06;;;;;;;23.57;11.43;;;;;;;8.10;29.14;101482.89;4367615;79;28539;-82
2022/03/20 20:09:12;;;;;;;24.35;12.05;;;;;;;8.06;29.31;101480.19;4384347;79;28489;-79
2022/03/20 20:15:13;;;;;;;25.33;11.83;;;;;;;7.90;29.72;101480.37;4369252;79;28579;-81
2022/03/20 20:21:14;;;;;;;23.87;11.93;;;;;;;7.90;29.93;101479.55;4369962;80;28476;-80
2022/03/20 20:27:18;;;;;;;24.63;11.45;;;;;;;7.81;30.06;101479.97;4349443;80;28531;-78
2022/03/20 20:33:19;;;;;;;25.10;11.83;;;;;;;7.72;30.25;101482.22;4371705;79;28580;-80
2022/03/20 20:39:21;;;;;;;24.70;11.73;;;;;;;7.76;30.32;101480.43;4369037;80;28521;-79
2022/03/20 20:45:26;;;;;;;27.45;11.95;;;;;;;7.70;30.36;101478.34;4358626;80;28521;-82
2022/03/20 20:51:32;;;;;;;28.10;12.35;;;;;;;7.58;30.57;101480.39;4380392;80;28533;-79
2022/03/20 20:57:33;;;;;;;24.23;12.10;;;;;;;7.57;30.44;101484.58;4372759;79;28575;-78
2022/03/20 21:03:37;;;;;;;24.35;11.57;;;;;;;7.59;30.29;101482.08;4376546;80;28519;-79
2022/03/20 21:16:03;;;;;;;30.50;12.82;;;;;;;7.39;30.65;101478.69;4378522;79;28504;-78
2022/03/20 21:22:05;;;;;;;22.60;11.75;;;;;;;7.47;30.53;101473.91;4382326;80;28489;-78
2022/03/20 21:28:07;;;;;;;26.15;12.70;;;;;;;7.33;30.85;101478.80;4376355;80;28520;-78
2022/03/20 21:34:09;;;;;;;22.32;11.18;;;;;;;7.33;30.78;101480.61;4354399;79;28536;-81
2022/03/20 21:40:13;;;;;;;28.45;13.55;;;;;;;7.33;31.56;101478.80;4434980;78;28542;-80
2022/03/20 21:46:17;;;;;;;27.98;13.32;;;;;;;7.11;31.53;101481.36;4439304;79;28554;-81
2022/03/20 21:52:18;;;;;;;32.55;13.98;;;;;;;6.91;31.92;101477.94;4431825;80;28521;-80
2022/03/20 21:58:21;;;;;;;28.02;13.68;;;;;;;6.74;32.09;101477.70;4429944;79;28553;-77
2022/03/20 22:04:22;;;;;;;31.07;14.68;;;;;;;6.64;32.38;101479.56;4412751;78;28572;-77
2022/03/20 22:10:23;;;;;;;27.95;12.55;;;;;;;6.61;32.30;101479.86;4348201;80;28503;-79
2022/03/20 22:16:24;;;;;;;28.65;13.85;;;;;;;6.42;32.96;101482.92;4361075;80;28525;-79
2022/03/20 22:22:27;;;;;;;29.50;13.53;;;;;;;6.26;33.17;101483.50;4360065;81;28562;-80
2022/03/20 22:28:28;;;;;;;28.23;13.15;;;;;;;6.23;33.14;101489.97;4363193;80;28491;-79
2022/03/20 22:34:29;;;;;;;27.07;13.03;;;;;;;6.09;33.21;101481.92;4369833;80;28464;-80
2022/03/20 22:40:33;;;;;;;27.48;12.80;;;;;;;5.88;33.79;101487.83;4417211;79;28559;-79
2022/03/20 22:46:35;;;;;;;28.32;13.60;;;;;;;5.84;34.22;101501.98;4373378;80;28514;-77
2022/03/20 22:52:39;;;;;;;28.75;13.65;;;;;;;5.62;34.29;101503.06;4438320;79;28561;-79
2022/03/20 22:58:40;;;;;;;30.48;14.50;;;;;;;5.83;34.29;101505.59;4434334;79;28548;-79
2022/03/20 23:04:43;;;;;;;31.15;13.48;;;;;;;5.65;34.91;101504.11;4340163;81;44135;-78
2022/03/20 23:10:45;;;;;;;30.60;13.72;;;;;;;5.69;34.94;101511.70;4438489;79;28557;-78
2022/03/20 23:16:47;;;;;;;28.70;14.28;;;;;;;5.70;34.94;101505.89;4423124;79;43452;-83
2022/03/20 23:22:50;;;;;;;30.48;13.78;;;;;;;5.52;34.97;101509.22;4370774;80;44107;-80
2022/03/20 23:28:52;;;;;;;30.65;14.55;;;;;;;5.40;35.56;101496.97;4360757;81;44073;-74
2022/03/20 23:34:53;;;;;;;35.75;15.65;;;;;;;5.25;35.91;101501.84;4356749;81;44466;-76
2022/03/20 23:47:14;;;;;;;36.23;16.12;;;;;;;4.94;36.65;101487.19;4313255;81;44466;-78
2022/03/20 23:53:16;;;;;;;35.05;14.63;;;;;;;4.88;36.77;101487.23;4354011;81;44158;-75
2022/03/20 23:59:18;;;;;;;33.78;15.63;;;;;;;4.90;36.74;101485.78;4348634;81;44100;-73
